<?xml version="1.0" encoding="UTF-8" standalone="no" ?>
<gpx xmlns="http://www.topografix.com/GPX/1/1" xmlns:xsi="http://www.w3.org/2001/XMLSchema-instance" xsi:schemaLocation="http://www.topografix.com/GPX/1/1 http://www.topografix.com/GPX/1/1/gpx.xsd" version="1.1" creator="VisuGPX - https://www.visugpx.com">
  <metadata>
    <name>Marche 28.02.2021</name>
  </metadata>
  <trk>
    <name><![CDATA[28.02.2021]]></name>
    <extensions>
      <line xmlns="http://www.topografix.com/GPX/gpx_style/0/2">
        <color>ff0000</color>
        <opacity>0.5</opacity>
        <width>2</width>
      </line>
    </extensions>
    <trkseg>
      <trkpt lat="45.88367" lon="-0.89687">
        <ele>14.7</ele>
        <time>2021-02-28T08:30:00.000Z</time>
      </trkpt>
      <trkpt lat="45.88367" lon="-0.89687">
        <ele>14.7</ele>
        <time>2021-02-28T08:30:00.000Z</time>
      </trkpt>
      <trkpt lat="45.88408" lon="-0.89686">
        <ele>14.6</ele>
        <time>2021-02-28T08:30:37.043Z</time>
      </trkpt>
      <trkpt lat="45.88417" lon="-0.89745">
        <ele>13.1</ele>
        <time>2021-02-28T08:30:48.076Z</time>
      </trkpt>
      <trkpt lat="45.88418" lon="-0.89765">
        <ele>12.8</ele>
        <time>2021-02-28T08:30:52.338Z</time>
      </trkpt>
      <trkpt lat="45.88416" lon="-0.89783">
        <ele>12.6</ele>
        <time>2021-02-28T08:30:56.486Z</time>
      </trkpt>
      <trkpt lat="45.88415" lon="-0.89825">
        <ele>12.1</ele>
        <time>2021-02-28T08:31:05.896Z</time>
      </trkpt>
      <trkpt lat="45.88411" lon="-0.89841">
        <ele>11.9</ele>
        <time>2021-02-28T08:31:09.711Z</time>
      </trkpt>
      <trkpt lat="45.88392" lon="-0.89897">
        <ele>10.8</ele>
        <time>2021-02-28T08:31:22.386Z</time>
      </trkpt>
      <trkpt lat="45.88372" lon="-0.90044">
        <ele>9.7</ele>
        <time>2021-02-28T08:31:58.815Z</time>
      </trkpt>
      <trkpt lat="45.88362" lon="-0.90134">
        <ele>9.3</ele>
        <time>2021-02-28T08:32:53.031Z</time>
      </trkpt>
      <trkpt lat="45.88354" lon="-0.90214">
        <ele>8.6</ele>
        <time>2021-02-28T08:33:12.210Z</time>
      </trkpt>
      <trkpt lat="45.88342" lon="-0.90337">
        <ele>7.3</ele>
        <time>2021-02-28T08:33:40.731Z</time>
      </trkpt>
      <trkpt lat="45.88338" lon="-0.90397">
        <ele>7.9</ele>
        <time>2021-02-28T08:34:25.977Z</time>
      </trkpt>
      <trkpt lat="45.88338" lon="-0.9043">
        <ele>8.4</ele>
        <time>2021-02-28T08:34:52.864Z</time>
      </trkpt>
      <trkpt lat="45.88332" lon="-0.90437">
        <ele>8.5</ele>
        <time>2021-02-28T08:35:01.081Z</time>
      </trkpt>
      <trkpt lat="45.88326" lon="-0.90489">
        <ele>9.7</ele>
        <time>2021-02-28T08:35:50.172Z</time>
      </trkpt>
      <trkpt lat="45.88326" lon="-0.90524">
        <ele>9.6</ele>
        <time>2021-02-28T08:36:11.653Z</time>
      </trkpt>
      <trkpt lat="45.8836" lon="-0.90609">
        <ele>8.5</ele>
        <time>2021-02-28T08:36:33.865Z</time>
      </trkpt>
      <trkpt lat="45.88365" lon="-0.90674">
        <ele>8</ele>
        <time>2021-02-28T08:36:49.680Z</time>
      </trkpt>
      <trkpt lat="45.88368" lon="-0.90693">
        <ele>8.1</ele>
        <time>2021-02-28T08:37:03.310Z</time>
      </trkpt>
      <trkpt lat="45.88371" lon="-0.90758">
        <ele>8.9</ele>
        <time>2021-02-28T08:37:53.995Z</time>
      </trkpt>
      <trkpt lat="45.88362" lon="-0.90792">
        <ele>10.3</ele>
        <time>2021-02-28T08:38:36.975Z</time>
      </trkpt>
      <trkpt lat="45.88369" lon="-0.90835">
        <ele>11.6</ele>
        <time>2021-02-28T08:39:23.997Z</time>
      </trkpt>
      <trkpt lat="45.88389" lon="-0.90885">
        <ele>12</ele>
        <time>2021-02-28T08:40:05.393Z</time>
      </trkpt>
      <trkpt lat="45.88405" lon="-0.90904">
        <ele>12</ele>
        <time>2021-02-28T08:40:24.846Z</time>
      </trkpt>
      <trkpt lat="45.88428" lon="-0.90913">
        <ele>11.3</ele>
        <time>2021-02-28T08:40:31.519Z</time>
      </trkpt>
      <trkpt lat="45.8844" lon="-0.90927">
        <ele>10.3</ele>
        <time>2021-02-28T08:40:34.670Z</time>
      </trkpt>
      <trkpt lat="45.88472" lon="-0.90974">
        <ele>7.6</ele>
        <time>2021-02-28T08:40:44.426Z</time>
      </trkpt>
      <trkpt lat="45.88484" lon="-0.90981">
        <ele>6.9</ele>
        <time>2021-02-28T08:40:47.302Z</time>
      </trkpt>
      <trkpt lat="45.88496" lon="-0.90994">
        <ele>6.2</ele>
        <time>2021-02-28T08:40:50.861Z</time>
      </trkpt>
      <trkpt lat="45.88528" lon="-0.9099">
        <ele>5.9</ele>
        <time>2021-02-28T08:41:02.266Z</time>
      </trkpt>
      <trkpt lat="45.88589" lon="-0.90996">
        <ele>5.7</ele>
        <time>2021-02-28T08:41:56.829Z</time>
      </trkpt>
      <trkpt lat="45.88653" lon="-0.90993">
        <ele>10.1</ele>
        <time>2021-02-28T08:43:56.417Z</time>
      </trkpt>
      <trkpt lat="45.88671" lon="-0.90988">
        <ele>11.2</ele>
        <time>2021-02-28T08:44:28.564Z</time>
      </trkpt>
      <trkpt lat="45.88705" lon="-0.90985">
        <ele>12</ele>
        <time>2021-02-28T08:45:09.234Z</time>
      </trkpt>
      <trkpt lat="45.88744" lon="-0.90989">
        <ele>12.9</ele>
        <time>2021-02-28T08:45:55.664Z</time>
      </trkpt>
      <trkpt lat="45.88764" lon="-0.90986">
        <ele>13.1</ele>
        <time>2021-02-28T08:46:16.396Z</time>
      </trkpt>
      <trkpt lat="45.88777" lon="-0.90984">
        <ele>13.3</ele>
        <time>2021-02-28T08:46:30.645Z</time>
      </trkpt>
      <trkpt lat="45.88789" lon="-0.9097">
        <ele>13.3</ele>
        <time>2021-02-28T08:46:45.131Z</time>
      </trkpt>
      <trkpt lat="45.88799" lon="-0.90954">
        <ele>13.3</ele>
        <time>2021-02-28T08:46:59.157Z</time>
      </trkpt>
      <trkpt lat="45.88811" lon="-0.90927">
        <ele>13.1</ele>
        <time>2021-02-28T08:47:07.114Z</time>
      </trkpt>
      <trkpt lat="45.88823" lon="-0.90901">
        <ele>12.8</ele>
        <time>2021-02-28T08:47:14.388Z</time>
      </trkpt>
      <trkpt lat="45.88836" lon="-0.90915">
        <ele>12.9</ele>
        <time>2021-02-28T08:47:30.522Z</time>
      </trkpt>
      <trkpt lat="45.88889" lon="-0.90957">
        <ele>13.1</ele>
        <time>2021-02-28T08:48:29.014Z</time>
      </trkpt>
      <trkpt lat="45.88903" lon="-0.90966">
        <ele>13.2</ele>
        <time>2021-02-28T08:48:44.300Z</time>
      </trkpt>
      <trkpt lat="45.88912" lon="-0.90961">
        <ele>13.1</ele>
        <time>2021-02-28T08:48:47.679Z</time>
      </trkpt>
      <trkpt lat="45.88918" lon="-0.90949">
        <ele>12.8</ele>
        <time>2021-02-28T08:48:50.564Z</time>
      </trkpt>
      <trkpt lat="45.88929" lon="-0.90925">
        <ele>12.3</ele>
        <time>2021-02-28T08:48:56.434Z</time>
      </trkpt>
      <trkpt lat="45.88951" lon="-0.90886">
        <ele>12.4</ele>
        <time>2021-02-28T08:49:30.059Z</time>
      </trkpt>
      <trkpt lat="45.88987" lon="-0.90827">
        <ele>12.9</ele>
        <time>2021-02-28T08:50:25.921Z</time>
      </trkpt>
      <trkpt lat="45.89008" lon="-0.90795">
        <ele>13.1</ele>
        <time>2021-02-28T08:50:56.433Z</time>
      </trkpt>
      <trkpt lat="45.89021" lon="-0.90788">
        <ele>13.1</ele>
        <time>2021-02-28T08:51:09.443Z</time>
      </trkpt>
      <trkpt lat="45.89044" lon="-0.9078">
        <ele>13.2</ele>
        <time>2021-02-28T08:51:32.512Z</time>
      </trkpt>
      <trkpt lat="45.89067" lon="-0.90777">
        <ele>13.3</ele>
        <time>2021-02-28T08:51:55.048Z</time>
      </trkpt>
      <trkpt lat="45.89088" lon="-0.90769">
        <ele>13.3</ele>
        <time>2021-02-28T08:52:15.407Z</time>
      </trkpt>
      <trkpt lat="45.89107" lon="-0.90762">
        <ele>13.4</ele>
        <time>2021-02-28T08:52:34.689Z</time>
      </trkpt>
      <trkpt lat="45.89124" lon="-0.90751">
        <ele>13.5</ele>
        <time>2021-02-28T08:52:53.063Z</time>
      </trkpt>
      <trkpt lat="45.89142" lon="-0.90728">
        <ele>13.8</ele>
        <time>2021-02-28T08:53:18.544Z</time>
      </trkpt>
      <trkpt lat="45.89167" lon="-0.90698">
        <ele>14.6</ele>
        <time>2021-02-28T08:53:57.928Z</time>
      </trkpt>
      <trkpt lat="45.89185" lon="-0.90679">
        <ele>15.9</ele>
        <time>2021-02-28T08:54:36.606Z</time>
      </trkpt>
      <trkpt lat="45.89198" lon="-0.90665">
        <ele>16.8</ele>
        <time>2021-02-28T08:55:04.203Z</time>
      </trkpt>
      <trkpt lat="45.89213" lon="-0.90658">
        <ele>17.6</ele>
        <time>2021-02-28T08:55:30.169Z</time>
      </trkpt>
      <trkpt lat="45.89233" lon="-0.9065">
        <ele>18.6</ele>
        <time>2021-02-28T08:56:03.783Z</time>
      </trkpt>
      <trkpt lat="45.89246" lon="-0.90642">
        <ele>19.2</ele>
        <time>2021-02-28T08:56:25.460Z</time>
      </trkpt>
      <trkpt lat="45.89262" lon="-0.90628">
        <ele>19.5</ele>
        <time>2021-02-28T08:56:46.033Z</time>
      </trkpt>
      <trkpt lat="45.89273" lon="-0.90619">
        <ele>19.7</ele>
        <time>2021-02-28T08:56:59.902Z</time>
      </trkpt>
      <trkpt lat="45.89306" lon="-0.90603">
        <ele>20.5</ele>
        <time>2021-02-28T08:57:41.237Z</time>
      </trkpt>
      <trkpt lat="45.89329" lon="-0.90594">
        <ele>21.1</ele>
        <time>2021-02-28T08:58:10.269Z</time>
      </trkpt>
      <trkpt lat="45.89343" lon="-0.90582">
        <ele>21.3</ele>
        <time>2021-02-28T08:58:27.479Z</time>
      </trkpt>
      <trkpt lat="45.89353" lon="-0.90568">
        <ele>21.3</ele>
        <time>2021-02-28T08:58:40.563Z</time>
      </trkpt>
      <trkpt lat="45.89365" lon="-0.90544">
        <ele>21.2</ele>
        <time>2021-02-28T08:58:58.501Z</time>
      </trkpt>
      <trkpt lat="45.89373" lon="-0.90521">
        <ele>20.9</ele>
        <time>2021-02-28T08:59:04.280Z</time>
      </trkpt>
      <trkpt lat="45.89381" lon="-0.90507">
        <ele>20.9</ele>
        <time>2021-02-28T08:59:16.094Z</time>
      </trkpt>
      <trkpt lat="45.89395" lon="-0.90494">
        <ele>21.2</ele>
        <time>2021-02-28T08:59:34.798Z</time>
      </trkpt>
      <trkpt lat="45.89428" lon="-0.90462">
        <ele>22.3</ele>
        <time>2021-02-28T09:00:24.748Z</time>
      </trkpt>
      <trkpt lat="45.89449" lon="-0.90395">
        <ele>22.7</ele>
        <time>2021-02-28T09:01:16.371Z</time>
      </trkpt>
      <trkpt lat="45.89465" lon="-0.90352">
        <ele>22.7</ele>
        <time>2021-02-28T09:01:48.172Z</time>
      </trkpt>
      <trkpt lat="45.89478" lon="-0.90318">
        <ele>22.6</ele>
        <time>2021-02-28T09:02:12.115Z</time>
      </trkpt>
      <trkpt lat="45.89485" lon="-0.90311">
        <ele>22.6</ele>
        <time>2021-02-28T09:02:20.107Z</time>
      </trkpt>
      <trkpt lat="45.89668" lon="-0.90198">
        <ele>23.6</ele>
        <time>2021-02-28T09:05:35.759Z</time>
      </trkpt>
      <trkpt lat="45.89717" lon="-0.90164">
        <ele>23.4</ele>
        <time>2021-02-28T09:06:24.033Z</time>
      </trkpt>
      <trkpt lat="45.89792" lon="-0.90122">
        <ele>22.3</ele>
        <time>2021-02-28T09:06:51.047Z</time>
      </trkpt>
      <trkpt lat="45.89863" lon="-0.90082">
        <ele>22.3</ele>
        <time>2021-02-28T09:08:02.512Z</time>
      </trkpt>
      <trkpt lat="45.89943" lon="-0.90037">
        <ele>20.5</ele>
        <time>2021-02-28T09:08:28.908Z</time>
      </trkpt>
      <trkpt lat="45.8999" lon="-0.90009">
        <ele>20.8</ele>
        <time>2021-02-28T09:09:19.309Z</time>
      </trkpt>
      <trkpt lat="45.90014" lon="-0.89999">
        <ele>20.6</ele>
        <time>2021-02-28T09:09:28.343Z</time>
      </trkpt>
      <trkpt lat="45.90042" lon="-0.89992">
        <ele>19.9</ele>
        <time>2021-02-28T09:09:36.718Z</time>
      </trkpt>
      <trkpt lat="45.90061" lon="-0.89985">
        <ele>19.6</ele>
        <time>2021-02-28T09:09:43.168Z</time>
      </trkpt>
      <trkpt lat="45.90077" lon="-0.89969">
        <ele>19.4</ele>
        <time>2021-02-28T09:09:50.005Z</time>
      </trkpt>
      <trkpt lat="45.90089" lon="-0.89953">
        <ele>19.5</ele>
        <time>2021-02-28T09:10:06.254Z</time>
      </trkpt>
      <trkpt lat="45.90099" lon="-0.89946">
        <ele>19.6</ele>
        <time>2021-02-28T09:10:17.613Z</time>
      </trkpt>
      <trkpt lat="45.90135" lon="-0.89918">
        <ele>20</ele>
        <time>2021-02-28T09:10:59.745Z</time>
      </trkpt>
      <trkpt lat="45.90151" lon="-0.899">
        <ele>20.1</ele>
        <time>2021-02-28T09:11:19.685Z</time>
      </trkpt>
      <trkpt lat="45.90158" lon="-0.89886">
        <ele>20.3</ele>
        <time>2021-02-28T09:11:32.954Z</time>
      </trkpt>
      <trkpt lat="45.9017" lon="-0.8986">
        <ele>20.7</ele>
        <time>2021-02-28T09:11:57.429Z</time>
      </trkpt>
      <trkpt lat="45.90179" lon="-0.89847">
        <ele>20.7</ele>
        <time>2021-02-28T09:12:09.388Z</time>
      </trkpt>
      <trkpt lat="45.90186" lon="-0.89847">
        <ele>20.6</ele>
        <time>2021-02-28T09:12:11.719Z</time>
      </trkpt>
      <trkpt lat="45.90202" lon="-0.89854">
        <ele>20.4</ele>
        <time>2021-02-28T09:12:17.456Z</time>
      </trkpt>
      <trkpt lat="45.90221" lon="-0.89872">
        <ele>20.2</ele>
        <time>2021-02-28T09:12:25.596Z</time>
      </trkpt>
      <trkpt lat="45.90231" lon="-0.89884">
        <ele>20.1</ele>
        <time>2021-02-28T09:12:30.328Z</time>
      </trkpt>
      <trkpt lat="45.90239" lon="-0.89888">
        <ele>20</ele>
        <time>2021-02-28T09:12:33.239Z</time>
      </trkpt>
      <trkpt lat="45.90244" lon="-0.89889">
        <ele>20</ele>
        <time>2021-02-28T09:12:37.969Z</time>
      </trkpt>
      <trkpt lat="45.90245" lon="-0.89901">
        <ele>20</ele>
        <time>2021-02-28T09:12:45.851Z</time>
      </trkpt>
      <trkpt lat="45.90245" lon="-0.89966">
        <ele>19.9</ele>
        <time>2021-02-28T09:13:26.849Z</time>
      </trkpt>
      <trkpt lat="45.90242" lon="-0.90078">
        <ele>19</ele>
        <time>2021-02-28T09:13:53.750Z</time>
      </trkpt>
      <trkpt lat="45.90232" lon="-0.90178">
        <ele>18.1</ele>
        <time>2021-02-28T09:14:17.605Z</time>
      </trkpt>
      <trkpt lat="45.90215" lon="-0.90312">
        <ele>18.2</ele>
        <time>2021-02-28T09:15:47.296Z</time>
      </trkpt>
      <trkpt lat="45.90194" lon="-0.90471">
        <ele>16.7</ele>
        <time>2021-02-28T09:16:25.258Z</time>
      </trkpt>
      <trkpt lat="45.90149" lon="-0.90828">
        <ele>15.3</ele>
        <time>2021-02-28T09:20:03.327Z</time>
      </trkpt>
      <trkpt lat="45.90118" lon="-0.91075">
        <ele>13.5</ele>
        <time>2021-02-28T09:21:04.549Z</time>
      </trkpt>
      <trkpt lat="45.90116" lon="-0.91096">
        <ele>13.4</ele>
        <time>2021-02-28T09:21:17.071Z</time>
      </trkpt>
      <trkpt lat="45.90098" lon="-0.9118">
        <ele>13.1</ele>
        <time>2021-02-28T09:22:10.382Z</time>
      </trkpt>
      <trkpt lat="45.90072" lon="-0.91263">
        <ele>12.1</ele>
        <time>2021-02-28T09:22:31.083Z</time>
      </trkpt>
      <trkpt lat="45.90049" lon="-0.91319">
        <ele>11.7</ele>
        <time>2021-02-28T09:22:47.259Z</time>
      </trkpt>
      <trkpt lat="45.90009" lon="-0.91406">
        <ele>9.4</ele>
        <time>2021-02-28T09:23:07.083Z</time>
      </trkpt>
      <trkpt lat="45.89964" lon="-0.91483">
        <ele>8.8</ele>
        <time>2021-02-28T09:23:32.186Z</time>
      </trkpt>
      <trkpt lat="45.89888" lon="-0.91607">
        <ele>8.6</ele>
        <time>2021-02-28T09:25:17.146Z</time>
      </trkpt>
      <trkpt lat="45.89813" lon="-0.91732">
        <ele>8.9</ele>
        <time>2021-02-28T09:27:07.419Z</time>
      </trkpt>
      <trkpt lat="45.89743" lon="-0.91855">
        <ele>5.9</ele>
        <time>2021-02-28T09:27:39.121Z</time>
      </trkpt>
      <trkpt lat="45.89709" lon="-0.91926">
        <ele>3.4</ele>
        <time>2021-02-28T09:27:53.978Z</time>
      </trkpt>
      <trkpt lat="45.89675" lon="-0.92004">
        <ele>3.7</ele>
        <time>2021-02-28T09:28:56.692Z</time>
      </trkpt>
      <trkpt lat="45.89643" lon="-0.92083">
        <ele>3.3</ele>
        <time>2021-02-28T09:29:51.067Z</time>
      </trkpt>
      <trkpt lat="45.8959" lon="-0.92203">
        <ele>3.8</ele>
        <time>2021-02-28T09:31:28.260Z</time>
      </trkpt>
      <trkpt lat="45.89563" lon="-0.92263">
        <ele>3.2</ele>
        <time>2021-02-28T09:31:45.293Z</time>
      </trkpt>
      <trkpt lat="45.89559" lon="-0.92252">
        <ele>3.1</ele>
        <time>2021-02-28T09:31:48.271Z</time>
      </trkpt>
      <trkpt lat="45.89563" lon="-0.92239">
        <ele>3.4</ele>
        <time>2021-02-28T09:32:01.106Z</time>
      </trkpt>
      <trkpt lat="45.89564" lon="-0.92221">
        <ele>3.6</ele>
        <time>2021-02-28T09:32:14.893Z</time>
      </trkpt>
      <trkpt lat="45.89567" lon="-0.92202">
        <ele>3.7</ele>
        <time>2021-02-28T09:32:28.520Z</time>
      </trkpt>
      <trkpt lat="45.89571" lon="-0.92188">
        <ele>3.9</ele>
        <time>2021-02-28T09:32:40.468Z</time>
      </trkpt>
      <trkpt lat="45.89569" lon="-0.92176">
        <ele>3.9</ele>
        <time>2021-02-28T09:32:48.516Z</time>
      </trkpt>
      <trkpt lat="45.89564" lon="-0.92165">
        <ele>4</ele>
        <time>2021-02-28T09:32:58.039Z</time>
      </trkpt>
      <trkpt lat="45.89554" lon="-0.92157">
        <ele>4</ele>
        <time>2021-02-28T09:33:08.764Z</time>
      </trkpt>
      <trkpt lat="45.89538" lon="-0.9215">
        <ele>3.9</ele>
        <time>2021-02-28T09:33:23.122Z</time>
      </trkpt>
      <trkpt lat="45.89516" lon="-0.92142">
        <ele>3.8</ele>
        <time>2021-02-28T09:33:43.044Z</time>
      </trkpt>
      <trkpt lat="45.89477" lon="-0.92137">
        <ele>3.7</ele>
        <time>2021-02-28T09:34:18.354Z</time>
      </trkpt>
      <trkpt lat="45.89437" lon="-0.92138">
        <ele>3.9</ele>
        <time>2021-02-28T09:34:57.643Z</time>
      </trkpt>
      <trkpt lat="45.89416" lon="-0.92146">
        <ele>4</ele>
        <time>2021-02-28T09:35:18.898Z</time>
      </trkpt>
      <trkpt lat="45.89412" lon="-0.92121">
        <ele>3.9</ele>
        <time>2021-02-28T09:35:34.307Z</time>
      </trkpt>
      <trkpt lat="45.89413" lon="-0.92099">
        <ele>4</ele>
        <time>2021-02-28T09:35:49.599Z</time>
      </trkpt>
      <trkpt lat="45.89411" lon="-0.92083">
        <ele>3.9</ele>
        <time>2021-02-28T09:35:53.643Z</time>
      </trkpt>
      <trkpt lat="45.89404" lon="-0.92055">
        <ele>3.2</ele>
        <time>2021-02-28T09:35:59.179Z</time>
      </trkpt>
      <trkpt lat="45.89396" lon="-0.92033">
        <ele>2.7</ele>
        <time>2021-02-28T09:36:04.037Z</time>
      </trkpt>
      <trkpt lat="45.89389" lon="-0.92023">
        <ele>2.5</ele>
        <time>2021-02-28T09:36:07.094Z</time>
      </trkpt>
      <trkpt lat="45.89384" lon="-0.92002">
        <ele>2</ele>
        <time>2021-02-28T09:36:11.286Z</time>
      </trkpt>
      <trkpt lat="45.8938" lon="-0.91977">
        <ele>2.2</ele>
        <time>2021-02-28T09:36:29.929Z</time>
      </trkpt>
      <trkpt lat="45.89377" lon="-0.91956">
        <ele>2.5</ele>
        <time>2021-02-28T09:36:47.068Z</time>
      </trkpt>
      <trkpt lat="45.89371" lon="-0.91946">
        <ele>2.7</ele>
        <time>2021-02-28T09:36:57.823Z</time>
      </trkpt>
      <trkpt lat="45.89361" lon="-0.91942">
        <ele>2.9</ele>
        <time>2021-02-28T09:37:09.635Z</time>
      </trkpt>
      <trkpt lat="45.89352" lon="-0.91937">
        <ele>3.2</ele>
        <time>2021-02-28T09:37:22.278Z</time>
      </trkpt>
      <trkpt lat="45.89349" lon="-0.91927">
        <ele>3.4</ele>
        <time>2021-02-28T09:37:31.644Z</time>
      </trkpt>
      <trkpt lat="45.89344" lon="-0.91919">
        <ele>3.7</ele>
        <time>2021-02-28T09:37:42.726Z</time>
      </trkpt>
      <trkpt lat="45.89355" lon="-0.91916">
        <ele>3.5</ele>
        <time>2021-02-28T09:37:46.294Z</time>
      </trkpt>
      <trkpt lat="45.89377" lon="-0.91891">
        <ele>3.3</ele>
        <time>2021-02-28T09:38:09.990Z</time>
      </trkpt>
      <trkpt lat="45.89394" lon="-0.91877">
        <ele>3.2</ele>
        <time>2021-02-28T09:38:27.021Z</time>
      </trkpt>
      <trkpt lat="45.8941" lon="-0.91861">
        <ele>3.4</ele>
        <time>2021-02-28T09:38:47.183Z</time>
      </trkpt>
      <trkpt lat="45.89417" lon="-0.91845">
        <ele>3.7</ele>
        <time>2021-02-28T09:39:02.764Z</time>
      </trkpt>
      <trkpt lat="45.89422" lon="-0.91832">
        <ele>4.1</ele>
        <time>2021-02-28T09:39:17.770Z</time>
      </trkpt>
      <trkpt lat="45.89429" lon="-0.91819">
        <ele>4.7</ele>
        <time>2021-02-28T09:39:36.820Z</time>
      </trkpt>
      <trkpt lat="45.89437" lon="-0.91804">
        <ele>5.3</ele>
        <time>2021-02-28T09:39:57.770Z</time>
      </trkpt>
      <trkpt lat="45.89443" lon="-0.91796">
        <ele>5.7</ele>
        <time>2021-02-28T09:40:11.084Z</time>
      </trkpt>
      <trkpt lat="45.89446" lon="-0.91782">
        <ele>6.2</ele>
        <time>2021-02-28T09:40:27.685Z</time>
      </trkpt>
      <trkpt lat="45.89445" lon="-0.91771">
        <ele>6.4</ele>
        <time>2021-02-28T09:40:37.171Z</time>
      </trkpt>
      <trkpt lat="45.89442" lon="-0.91754">
        <ele>6.8</ele>
        <time>2021-02-28T09:40:53.516Z</time>
      </trkpt>
      <trkpt lat="45.89439" lon="-0.91745">
        <ele>6.9</ele>
        <time>2021-02-28T09:41:01.013Z</time>
      </trkpt>
      <trkpt lat="45.89434" lon="-0.91741">
        <ele>6.9</ele>
        <time>2021-02-28T09:41:06.376Z</time>
      </trkpt>
      <trkpt lat="45.89428" lon="-0.9174">
        <ele>6.7</ele>
        <time>2021-02-28T09:41:08.002Z</time>
      </trkpt>
      <trkpt lat="45.89423" lon="-0.91742">
        <ele>6.4</ele>
        <time>2021-02-28T09:41:09.120Z</time>
      </trkpt>
      <trkpt lat="45.89414" lon="-0.91749">
        <ele>5.9</ele>
        <time>2021-02-28T09:41:11.495Z</time>
      </trkpt>
      <trkpt lat="45.89408" lon="-0.91753">
        <ele>5.7</ele>
        <time>2021-02-28T09:41:13.330Z</time>
      </trkpt>
      <trkpt lat="45.89401" lon="-0.91753">
        <ele>5.6</ele>
        <time>2021-02-28T09:41:15.661Z</time>
      </trkpt>
      <trkpt lat="45.89396" lon="-0.91754">
        <ele>5.4</ele>
        <time>2021-02-28T09:41:16.936Z</time>
      </trkpt>
      <trkpt lat="45.89391" lon="-0.91751">
        <ele>5.4</ele>
        <time>2021-02-28T09:41:22.013Z</time>
      </trkpt>
      <trkpt lat="45.89387" lon="-0.91745">
        <ele>5.4</ele>
        <time>2021-02-28T09:41:27.432Z</time>
      </trkpt>
      <trkpt lat="45.89385" lon="-0.91743">
        <ele>5.4</ele>
        <time>2021-02-28T09:41:29.716Z</time>
      </trkpt>
      <trkpt lat="45.89381" lon="-0.91734">
        <ele>5.4</ele>
        <time>2021-02-28T09:41:36.680Z</time>
      </trkpt>
      <trkpt lat="45.89378" lon="-0.9173">
        <ele>5.4</ele>
        <time>2021-02-28T09:41:40.516Z</time>
      </trkpt>
      <trkpt lat="45.89371" lon="-0.91716">
        <ele>5.5</ele>
        <time>2021-02-28T09:41:52.688Z</time>
      </trkpt>
      <trkpt lat="45.89366" lon="-0.91708">
        <ele>5.5</ele>
        <time>2021-02-28T09:41:59.701Z</time>
      </trkpt>
      <trkpt lat="45.89359" lon="-0.91697">
        <ele>5.5</ele>
        <time>2021-02-28T09:42:09.422Z</time>
      </trkpt>
      <trkpt lat="45.89359" lon="-0.91686">
        <ele>5.6</ele>
        <time>2021-02-28T09:42:17.571Z</time>
      </trkpt>
      <trkpt lat="45.89362" lon="-0.91678">
        <ele>5.9</ele>
        <time>2021-02-28T09:42:27.763Z</time>
      </trkpt>
      <trkpt lat="45.89369" lon="-0.91669">
        <ele>6.3</ele>
        <time>2021-02-28T09:42:42.195Z</time>
      </trkpt>
      <trkpt lat="45.8938" lon="-0.91655">
        <ele>6.8</ele>
        <time>2021-02-28T09:43:02.201Z</time>
      </trkpt>
      <trkpt lat="45.8939" lon="-0.91641">
        <ele>7.1</ele>
        <time>2021-02-28T09:43:18.491Z</time>
      </trkpt>
      <trkpt lat="45.89398" lon="-0.91629">
        <ele>7.3</ele>
        <time>2021-02-28T09:43:31.369Z</time>
      </trkpt>
      <trkpt lat="45.89402" lon="-0.91619">
        <ele>7.3</ele>
        <time>2021-02-28T09:43:38.891Z</time>
      </trkpt>
      <trkpt lat="45.89405" lon="-0.91608">
        <ele>7.3</ele>
        <time>2021-02-28T09:43:46.597Z</time>
      </trkpt>
      <trkpt lat="45.89406" lon="-0.91598">
        <ele>7.2</ele>
        <time>2021-02-28T09:43:48.940Z</time>
      </trkpt>
      <trkpt lat="45.89401" lon="-0.91587">
        <ele>7.2</ele>
        <time>2021-02-28T09:43:57.509Z</time>
      </trkpt>
      <trkpt lat="45.89386" lon="-0.91546">
        <ele>8.1</ele>
        <time>2021-02-28T09:44:38.098Z</time>
      </trkpt>
      <trkpt lat="45.89373" lon="-0.91522">
        <ele>8.6</ele>
        <time>2021-02-28T09:45:03.410Z</time>
      </trkpt>
      <trkpt lat="45.89361" lon="-0.91501">
        <ele>9</ele>
        <time>2021-02-28T09:45:25.390Z</time>
      </trkpt>
      <trkpt lat="45.89354" lon="-0.91481">
        <ele>8.8</ele>
        <time>2021-02-28T09:45:30.675Z</time>
      </trkpt>
      <trkpt lat="45.8935" lon="-0.91475">
        <ele>8.7</ele>
        <time>2021-02-28T09:45:32.530Z</time>
      </trkpt>
      <trkpt lat="45.89342" lon="-0.91456">
        <ele>8.2</ele>
        <time>2021-02-28T09:45:36.724Z</time>
      </trkpt>
      <trkpt lat="45.89331" lon="-0.91453">
        <ele>7.9</ele>
        <time>2021-02-28T09:45:39.946Z</time>
      </trkpt>
      <trkpt lat="45.89321" lon="-0.91452">
        <ele>8</ele>
        <time>2021-02-28T09:45:50.284Z</time>
      </trkpt>
      <trkpt lat="45.89309" lon="-0.91453">
        <ele>8.1</ele>
        <time>2021-02-28T09:46:02.478Z</time>
      </trkpt>
      <trkpt lat="45.89265" lon="-0.91463">
        <ele>8.3</ele>
        <time>2021-02-28T09:46:46.013Z</time>
      </trkpt>
      <trkpt lat="45.89233" lon="-0.91513">
        <ele>7.2</ele>
        <time>2021-02-28T09:47:00.159Z</time>
      </trkpt>
      <trkpt lat="45.89229" lon="-0.91573">
        <ele>6.2</ele>
        <time>2021-02-28T09:47:12.631Z</time>
      </trkpt>
      <trkpt lat="45.89228" lon="-0.91581">
        <ele>6</ele>
        <time>2021-02-28T09:47:14.120Z</time>
      </trkpt>
      <trkpt lat="45.89225" lon="-0.91584">
        <ele>6</ele>
        <time>2021-02-28T09:47:17.545Z</time>
      </trkpt>
      <trkpt lat="45.89226" lon="-0.91589">
        <ele>6</ele>
        <time>2021-02-28T09:47:20.938Z</time>
      </trkpt>
      <trkpt lat="45.89231" lon="-0.91595">
        <ele>6.1</ele>
        <time>2021-02-28T09:47:28.042Z</time>
      </trkpt>
      <trkpt lat="45.89257" lon="-0.91652">
        <ele>6</ele>
        <time>2021-02-28T09:48:11.101Z</time>
      </trkpt>
      <trkpt lat="45.89269" lon="-0.91681">
        <ele>5.7</ele>
        <time>2021-02-28T09:48:19.071Z</time>
      </trkpt>
      <trkpt lat="45.89274" lon="-0.91698">
        <ele>5.6</ele>
        <time>2021-02-28T09:48:23.729Z</time>
      </trkpt>
      <trkpt lat="45.89277" lon="-0.91713">
        <ele>5.5</ele>
        <time>2021-02-28T09:48:27.593Z</time>
      </trkpt>
      <trkpt lat="45.89276" lon="-0.91726">
        <ele>5.5</ele>
        <time>2021-02-28T09:48:36.124Z</time>
      </trkpt>
      <trkpt lat="45.89271" lon="-0.91737">
        <ele>5.5</ele>
        <time>2021-02-28T09:48:44.693Z</time>
      </trkpt>
      <trkpt lat="45.89265" lon="-0.91751">
        <ele>5.6</ele>
        <time>2021-02-28T09:48:56.349Z</time>
      </trkpt>
      <trkpt lat="45.89262" lon="-0.91761">
        <ele>5.6</ele>
        <time>2021-02-28T09:49:03.452Z</time>
      </trkpt>
      <trkpt lat="45.89262" lon="-0.91767">
        <ele>5.5</ele>
        <time>2021-02-28T09:49:04.691Z</time>
      </trkpt>
      <trkpt lat="45.89263" lon="-0.91777">
        <ele>5.4</ele>
        <time>2021-02-28T09:49:07.035Z</time>
      </trkpt>
      <trkpt lat="45.89256" lon="-0.91767">
        <ele>5.7</ele>
        <time>2021-02-28T09:49:19.854Z</time>
      </trkpt>
      <trkpt lat="45.89251" lon="-0.91754">
        <ele>5.9</ele>
        <time>2021-02-28T09:49:31.628Z</time>
      </trkpt>
      <trkpt lat="45.89248" lon="-0.91738">
        <ele>6.1</ele>
        <time>2021-02-28T09:49:44.476Z</time>
      </trkpt>
      <trkpt lat="45.89248" lon="-0.91727">
        <ele>6.1</ele>
        <time>2021-02-28T09:49:51.651Z</time>
      </trkpt>
      <trkpt lat="45.8925" lon="-0.91718">
        <ele>6</ele>
        <time>2021-02-28T09:49:53.815Z</time>
      </trkpt>
      <trkpt lat="45.89247" lon="-0.91701">
        <ele>6.1</ele>
        <time>2021-02-28T09:50:06.182Z</time>
      </trkpt>
      <trkpt lat="45.89236" lon="-0.91659">
        <ele>6.3</ele>
        <time>2021-02-28T09:50:37.275Z</time>
      </trkpt>
      <trkpt lat="45.89227" lon="-0.91647">
        <ele>6.4</ele>
        <time>2021-02-28T09:50:49.708Z</time>
      </trkpt>
      <trkpt lat="45.89218" lon="-0.91631">
        <ele>6.4</ele>
        <time>2021-02-28T09:51:03.126Z</time>
      </trkpt>
      <trkpt lat="45.89209" lon="-0.91621">
        <ele>6.4</ele>
        <time>2021-02-28T09:51:13.788Z</time>
      </trkpt>
      <trkpt lat="45.89203" lon="-0.91618">
        <ele>6.5</ele>
        <time>2021-02-28T09:51:20.744Z</time>
      </trkpt>
      <trkpt lat="45.89197" lon="-0.91622">
        <ele>6.6</ele>
        <time>2021-02-28T09:51:27.939Z</time>
      </trkpt>
      <trkpt lat="45.89192" lon="-0.91627">
        <ele>6.7</ele>
        <time>2021-02-28T09:51:34.658Z</time>
      </trkpt>
      <trkpt lat="45.89187" lon="-0.91635">
        <ele>6.9</ele>
        <time>2021-02-28T09:51:43.944Z</time>
      </trkpt>
      <trkpt lat="45.89182" lon="-0.9164">
        <ele>7.1</ele>
        <time>2021-02-28T09:51:52.108Z</time>
      </trkpt>
      <trkpt lat="45.89177" lon="-0.91646">
        <ele>7.3</ele>
        <time>2021-02-28T09:52:00.601Z</time>
      </trkpt>
      <trkpt lat="45.89172" lon="-0.91649">
        <ele>7.5</ele>
        <time>2021-02-28T09:52:08.272Z</time>
      </trkpt>
      <trkpt lat="45.89171" lon="-0.91649">
        <ele>7.5</ele>
        <time>2021-02-28T09:52:09.209Z</time>
      </trkpt>
      <trkpt lat="45.89163" lon="-0.91647">
        <ele>7.4</ele>
        <time>2021-02-28T09:52:11.982Z</time>
      </trkpt>
      <trkpt lat="45.89122" lon="-0.91634">
        <ele>6.2</ele>
        <time>2021-02-28T09:52:23.833Z</time>
      </trkpt>
      <trkpt lat="45.89117" lon="-0.91636">
        <ele>6.1</ele>
        <time>2021-02-28T09:52:25.460Z</time>
      </trkpt>
      <trkpt lat="45.89114" lon="-0.91641">
        <ele>6.1</ele>
        <time>2021-02-28T09:52:29.765Z</time>
      </trkpt>
      <trkpt lat="45.89114" lon="-0.91649">
        <ele>6.1</ele>
        <time>2021-02-28T09:52:34.983Z</time>
      </trkpt>
      <trkpt lat="45.89111" lon="-0.91656">
        <ele>6</ele>
        <time>2021-02-28T09:52:36.815Z</time>
      </trkpt>
      <trkpt lat="45.89093" lon="-0.91676">
        <ele>5.3</ele>
        <time>2021-02-28T09:52:43.092Z</time>
      </trkpt>
      <trkpt lat="45.89085" lon="-0.91685">
        <ele>4.9</ele>
        <time>2021-02-28T09:52:45.665Z</time>
      </trkpt>
      <trkpt lat="45.8908" lon="-0.91691">
        <ele>4.7</ele>
        <time>2021-02-28T09:52:47.463Z</time>
      </trkpt>
      <trkpt lat="45.89075" lon="-0.91692">
        <ele>4.8</ele>
        <time>2021-02-28T09:52:53.242Z</time>
      </trkpt>
      <trkpt lat="45.89069" lon="-0.91681">
        <ele>4.9</ele>
        <time>2021-02-28T09:53:03.305Z</time>
      </trkpt>
      <trkpt lat="45.8906" lon="-0.9167">
        <ele>5</ele>
        <time>2021-02-28T09:53:15.309Z</time>
      </trkpt>
      <trkpt lat="45.89045" lon="-0.91637">
        <ele>5.5</ele>
        <time>2021-02-28T09:53:46.168Z</time>
      </trkpt>
      <trkpt lat="45.89035" lon="-0.91634">
        <ele>5.6</ele>
        <time>2021-02-28T09:53:56.684Z</time>
      </trkpt>
      <trkpt lat="45.89054" lon="-0.91591">
        <ele>6.2</ele>
        <time>2021-02-28T09:54:36.001Z</time>
      </trkpt>
      <trkpt lat="45.89065" lon="-0.91568">
        <ele>7.2</ele>
        <time>2021-02-28T09:55:08.140Z</time>
      </trkpt>
      <trkpt lat="45.89071" lon="-0.91555">
        <ele>8.1</ele>
        <time>2021-02-28T09:55:30.818Z</time>
      </trkpt>
      <trkpt lat="45.89066" lon="-0.91548">
        <ele>8.6</ele>
        <time>2021-02-28T09:55:44.145Z</time>
      </trkpt>
      <trkpt lat="45.89051" lon="-0.91546">
        <ele>8.8</ele>
        <time>2021-02-28T09:56:00.217Z</time>
      </trkpt>
      <trkpt lat="45.89018" lon="-0.91535">
        <ele>9.3</ele>
        <time>2021-02-28T09:56:36.925Z</time>
      </trkpt>
      <trkpt lat="45.88978" lon="-0.91534">
        <ele>9.2</ele>
        <time>2021-02-28T09:57:13.032Z</time>
      </trkpt>
      <trkpt lat="45.88959" lon="-0.91536">
        <ele>9</ele>
        <time>2021-02-28T09:57:19.693Z</time>
      </trkpt>
      <trkpt lat="45.88945" lon="-0.91542">
        <ele>8.7</ele>
        <time>2021-02-28T09:57:24.204Z</time>
      </trkpt>
      <trkpt lat="45.88937" lon="-0.91552">
        <ele>8.2</ele>
        <time>2021-02-28T09:57:26.702Z</time>
      </trkpt>
      <trkpt lat="45.88928" lon="-0.91555">
        <ele>8.1</ele>
        <time>2021-02-28T09:57:29.919Z</time>
      </trkpt>
      <trkpt lat="45.8892" lon="-0.91554">
        <ele>8.1</ele>
        <time>2021-02-28T09:57:37.444Z</time>
      </trkpt>
      <trkpt lat="45.8891" lon="-0.91554">
        <ele>8</ele>
        <time>2021-02-28T09:57:40.964Z</time>
      </trkpt>
      <trkpt lat="45.88899" lon="-0.91548">
        <ele>8</ele>
        <time>2021-02-28T09:57:51.990Z</time>
      </trkpt>
      <trkpt lat="45.88836" lon="-0.91509">
        <ele>9.4</ele>
        <time>2021-02-28T09:59:11.055Z</time>
      </trkpt>
      <trkpt lat="45.8875" lon="-0.91448">
        <ele>9.3</ele>
        <time>2021-02-28T10:00:39.520Z</time>
      </trkpt>
      <trkpt lat="45.88706" lon="-0.91419">
        <ele>7.3</ele>
        <time>2021-02-28T10:00:51.551Z</time>
      </trkpt>
      <trkpt lat="45.88688" lon="-0.91416">
        <ele>6.3</ele>
        <time>2021-02-28T10:00:55.536Z</time>
      </trkpt>
      <trkpt lat="45.88671" lon="-0.91415">
        <ele>5.2</ele>
        <time>2021-02-28T10:00:59.006Z</time>
      </trkpt>
      <trkpt lat="45.88646" lon="-0.91419">
        <ele>4.7</ele>
        <time>2021-02-28T10:01:06.832Z</time>
      </trkpt>
      <trkpt lat="45.88627" lon="-0.91419">
        <ele>4.5</ele>
        <time>2021-02-28T10:01:13.472Z</time>
      </trkpt>
      <trkpt lat="45.88558" lon="-0.91418">
        <ele>4</ele>
        <time>2021-02-28T10:02:11.674Z</time>
      </trkpt>
      <trkpt lat="45.88514" lon="-0.91419">
        <ele>4</ele>
        <time>2021-02-28T10:02:52.912Z</time>
      </trkpt>
      <trkpt lat="45.88365" lon="-0.91422">
        <ele>7.1</ele>
        <time>2021-02-28T10:05:45.427Z</time>
      </trkpt>
      <trkpt lat="45.88276" lon="-0.91424">
        <ele>8.4</ele>
        <time>2021-02-28T10:07:21.722Z</time>
      </trkpt>
      <trkpt lat="45.88266" lon="-0.91422">
        <ele>8.6</ele>
        <time>2021-02-28T10:07:33.281Z</time>
      </trkpt>
      <trkpt lat="45.88261" lon="-0.91416">
        <ele>8.9</ele>
        <time>2021-02-28T10:07:43.687Z</time>
      </trkpt>
      <trkpt lat="45.88256" lon="-0.91407">
        <ele>9</ele>
        <time>2021-02-28T10:07:52.167Z</time>
      </trkpt>
      <trkpt lat="45.88255" lon="-0.91392">
        <ele>9.2</ele>
        <time>2021-02-28T10:08:04.077Z</time>
      </trkpt>
      <trkpt lat="45.88254" lon="-0.91366">
        <ele>9.5</ele>
        <time>2021-02-28T10:08:24.099Z</time>
      </trkpt>
      <trkpt lat="45.88248" lon="-0.91318">
        <ele>10.4</ele>
        <time>2021-02-28T10:09:06.116Z</time>
      </trkpt>
      <trkpt lat="45.88243" lon="-0.91301">
        <ele>10.8</ele>
        <time>2021-02-28T10:09:22.958Z</time>
      </trkpt>
      <trkpt lat="45.88238" lon="-0.9129">
        <ele>11</ele>
        <time>2021-02-28T10:09:33.675Z</time>
      </trkpt>
      <trkpt lat="45.88228" lon="-0.91282">
        <ele>11.1</ele>
        <time>2021-02-28T10:09:45.334Z</time>
      </trkpt>
      <trkpt lat="45.88216" lon="-0.91279">
        <ele>11.1</ele>
        <time>2021-02-28T10:09:56.749Z</time>
      </trkpt>
      <trkpt lat="45.88106" lon="-0.91238">
        <ele>8.7</ele>
        <time>2021-02-28T10:10:31.597Z</time>
      </trkpt>
      <trkpt lat="45.88087" lon="-0.91238">
        <ele>8.2</ele>
        <time>2021-02-28T10:10:37.092Z</time>
      </trkpt>
      <trkpt lat="45.88106" lon="-0.90996">
        <ele>15.6</ele>
        <time>2021-02-28T10:15:01.797Z</time>
      </trkpt>
      <trkpt lat="45.88114" lon="-0.90995">
        <ele>15.4</ele>
        <time>2021-02-28T10:15:04.156Z</time>
      </trkpt>
      <trkpt lat="45.88221" lon="-0.91003">
        <ele>14.6</ele>
        <time>2021-02-28T10:15:43.179Z</time>
      </trkpt>
      <trkpt lat="45.88299" lon="-0.91009">
        <ele>13.2</ele>
        <time>2021-02-28T10:16:08.052Z</time>
      </trkpt>
      <trkpt lat="45.88395" lon="-0.91012">
        <ele>9.4</ele>
        <time>2021-02-28T10:16:32.314Z</time>
      </trkpt>
      <trkpt lat="45.88453" lon="-0.91014">
        <ele>7.2</ele>
        <time>2021-02-28T10:16:47.208Z</time>
      </trkpt>
      <trkpt lat="45.88473" lon="-0.91005">
        <ele>6.8</ele>
        <time>2021-02-28T10:16:53.789Z</time>
      </trkpt>
      <trkpt lat="45.88485" lon="-0.90999">
        <ele>6.6</ele>
        <time>2021-02-28T10:16:57.944Z</time>
      </trkpt>
      <trkpt lat="45.88491" lon="-0.90997">
        <ele>6.4</ele>
        <time>2021-02-28T10:16:59.614Z</time>
      </trkpt>
      <trkpt lat="45.88495" lon="-0.90989">
        <ele>6.3</ele>
        <time>2021-02-28T10:17:01.888Z</time>
      </trkpt>
      <trkpt lat="45.88485" lon="-0.90978">
        <ele>6.9</ele>
        <time>2021-02-28T10:17:22.211Z</time>
      </trkpt>
      <trkpt lat="45.88473" lon="-0.90972">
        <ele>7.5</ele>
        <time>2021-02-28T10:17:42.659Z</time>
      </trkpt>
      <trkpt lat="45.88468" lon="-0.90964">
        <ele>7.9</ele>
        <time>2021-02-28T10:17:55.206Z</time>
      </trkpt>
      <trkpt lat="45.88441" lon="-0.90922">
        <ele>10.4</ele>
        <time>2021-02-28T10:19:06.395Z</time>
      </trkpt>
      <trkpt lat="45.88429" lon="-0.9091">
        <ele>11.2</ele>
        <time>2021-02-28T10:19:31.117Z</time>
      </trkpt>
      <trkpt lat="45.88423" lon="-0.90905">
        <ele>11.5</ele>
        <time>2021-02-28T10:19:41.881Z</time>
      </trkpt>
      <trkpt lat="45.88408" lon="-0.909">
        <ele>11.9</ele>
        <time>2021-02-28T10:20:00.817Z</time>
      </trkpt>
      <trkpt lat="45.88401" lon="-0.90891">
        <ele>11.9</ele>
        <time>2021-02-28T10:20:09.620Z</time>
      </trkpt>
      <trkpt lat="45.88392" lon="-0.90885">
        <ele>11.9</ele>
        <time>2021-02-28T10:20:18.918Z</time>
      </trkpt>
      <trkpt lat="45.88387" lon="-0.90872">
        <ele>11.8</ele>
        <time>2021-02-28T10:20:22.573Z</time>
      </trkpt>
      <trkpt lat="45.88381" lon="-0.9086">
        <ele>11.7</ele>
        <time>2021-02-28T10:20:26.206Z</time>
      </trkpt>
      <trkpt lat="45.88376" lon="-0.90849">
        <ele>11.7</ele>
        <time>2021-02-28T10:20:34.776Z</time>
      </trkpt>
      <trkpt lat="45.88369" lon="-0.9082">
        <ele>11.1</ele>
        <time>2021-02-28T10:20:40.839Z</time>
      </trkpt>
      <trkpt lat="45.88365" lon="-0.9079">
        <ele>10.2</ele>
        <time>2021-02-28T10:20:46.074Z</time>
      </trkpt>
      <trkpt lat="45.88369" lon="-0.90773">
        <ele>9.5</ele>
        <time>2021-02-28T10:20:48.802Z</time>
      </trkpt>
      <trkpt lat="45.88372" lon="-0.90749">
        <ele>8.6</ele>
        <time>2021-02-28T10:20:52.603Z</time>
      </trkpt>
      <trkpt lat="45.88371" lon="-0.90701">
        <ele>8.1</ele>
        <time>2021-02-28T10:21:03.641Z</time>
      </trkpt>
      <trkpt lat="45.88368" lon="-0.90679">
        <ele>7.9</ele>
        <time>2021-02-28T10:21:08.936Z</time>
      </trkpt>
      <trkpt lat="45.88363" lon="-0.90619">
        <ele>8.3</ele>
        <time>2021-02-28T10:21:52.116Z</time>
      </trkpt>
      <trkpt lat="45.88359" lon="-0.90598">
        <ele>8.6</ele>
        <time>2021-02-28T10:22:09.464Z</time>
      </trkpt>
      <trkpt lat="45.8833" lon="-0.90525">
        <ele>9.7</ele>
        <time>2021-02-28T10:23:15.700Z</time>
      </trkpt>
      <trkpt lat="45.88328" lon="-0.90489">
        <ele>9.7</ele>
        <time>2021-02-28T10:23:39.259Z</time>
      </trkpt>
      <trkpt lat="45.88331" lon="-0.90456">
        <ele>8.9</ele>
        <time>2021-02-28T10:23:45.408Z</time>
      </trkpt>
      <trkpt lat="45.88334" lon="-0.90438">
        <ele>8.5</ele>
        <time>2021-02-28T10:23:48.952Z</time>
      </trkpt>
      <trkpt lat="45.88337" lon="-0.90421">
        <ele>8.2</ele>
        <time>2021-02-28T10:23:52.552Z</time>
      </trkpt>
      <trkpt lat="45.88339" lon="-0.90391">
        <ele>7.8</ele>
        <time>2021-02-28T10:23:59.141Z</time>
      </trkpt>
      <trkpt lat="45.88346" lon="-0.90306">
        <ele>7.7</ele>
        <time>2021-02-28T10:24:53.577Z</time>
      </trkpt>
      <trkpt lat="45.88356" lon="-0.90213">
        <ele>8.6</ele>
        <time>2021-02-28T10:26:03.801Z</time>
      </trkpt>
      <trkpt lat="45.88365" lon="-0.90091">
        <ele>9.7</ele>
        <time>2021-02-28T10:27:34.537Z</time>
      </trkpt>
      <trkpt lat="45.88374" lon="-0.90011">
        <ele>9.6</ele>
        <time>2021-02-28T10:28:26.003Z</time>
      </trkpt>
      <trkpt lat="45.88384" lon="-0.89945">
        <ele>10.1</ele>
        <time>2021-02-28T10:29:14.820Z</time>
      </trkpt>
      <trkpt lat="45.8839" lon="-0.89896">
        <ele>10.8</ele>
        <time>2021-02-28T10:29:54.648Z</time>
      </trkpt>
      <trkpt lat="45.88403" lon="-0.89869">
        <ele>11.3</ele>
        <time>2021-02-28T10:30:21.431Z</time>
      </trkpt>
      <trkpt lat="45.88418" lon="-0.89812">
        <ele>12.3</ele>
        <time>2021-02-28T10:31:12.130Z</time>
      </trkpt>
      <trkpt lat="45.88419" lon="-0.89747">
        <ele>13</ele>
        <time>2021-02-28T10:32:01.542Z</time>
      </trkpt>
      <trkpt lat="45.88407" lon="-0.89687">
        <ele>14.5</ele>
        <time>2021-02-28T10:33:01.094Z</time>
      </trkpt>
      <trkpt lat="45.88369" lon="-0.89689">
        <ele>14.6</ele>
        <time>2021-02-28T10:33:37.607Z</time>
      </trkpt>
    </trkseg>
  </trk>
</gpx>